Phoenix Goodyear Airport

About
Name: Phoenix Goodyear Airport
Identifier:  GYR/KGYR
Serves:  Phoenix, Arizona
Owner:  City of Phoenix
Public/Private:  Public
Local Time:  19. Sep 06:27 MST
Description: Phoenix Goodyear Airport is a public airport a 1.15 miles southwest of Goodyear, in Maricopa County, Arizona.
Source: Wikipedia
Location
Runways
Identifier Length (m/ft) Surface
3/21 2,592/8,501 Asphalt
Statistics
Flights per Day:
0 flights
Distance: 1,673km (1,039mi)
Flights delayed:
50% (0 flights per day delayed)
Delay Average: 46 minutes
Current Weather
 25 C (Humidity: 36%)
  4kt (7km/h / 4mph) from 60°
  Few clouds at 12,000 feet (3,657 meter)
  16km (10 mi.)
 METAR KGYR 191247Z 06004KT 10SM FEW120 25/09 A2978 RMK FIRST

Current Delays

Departures
N/A
Arrivals
N/A

Destinations

Top Destinations
Airport Flights
per week
Seats
per week
  Houston (HOU) 1 - 0 0
  Houston (IAH) 0 - 0 0
  Los Angeles (LAX) 0 - 0 0
  Phoenix (AZA) 0 - 0 0

Airlines & Planes

Top Airlines
Airline Flights
per Day
Seats
per Day
  United Airlines 0 -
  Allegiant Air 0 -
Top Plane Types
Model Flights Seats
Boeing B737 MAX 9 0.4/day - 0
Airbus A320 0.0/day - 0